sensor_id;sensor_type;location;lat;lon;timestamp;P1;durP1;ratioP1;P2;durP2;ratioP2
28166;SDS011;15455;53.376;-6.262;2022-12-16T00:00:23;57.08;;;20.63;;
28166;SDS011;15455;53.376;-6.262;2022-12-16T00:03:09;48.00;;;20.45;;
28166;SDS011;15455;53.376;-6.262;2022-12-16T00:05:54;51.40;;;21.30;;
28166;SDS011;15455;53.376;-6.262;2022-12-16T00:08:40;50.95;;;20.77;;
28166;SDS011;15455;53.376;-6.262;2022-12-16T00:11:25;50.83;;;18.75;;
28166;SDS011;15455;53.376;-6.262;2022-12-16T00:14:11;51.05;;;18.73;;
28166;SDS011;15455;53.376;-6.262;2022-12-16T00:16:57;49.83;;;17.85;;
28166;SDS011;15455;53.376;-6.262;2022-12-16T00:19:42;45.72;;;18.42;;
28166;SDS011;15455;53.376;-6.262;2022-12-16T00:22:27;48.85;;;16.60;;
28166;SDS011;15455;53.376;-6.262;2022-12-16T00:25:13;53.70;;;18.80;;
28166;SDS011;15455;53.376;-6.262;2022-12-16T00:27:59;45.78;;;16.40;;
28166;SDS011;15455;53.376;-6.262;2022-12-16T00:30:44;54.20;;;16.83;;
28166;SDS011;15455;53.376;-6.262;2022-12-16T00:33:32;39.13;;;15.98;;
28166;SDS011;15455;53.376;-6.262;2022-12-16T00:36:19;42.03;;;17.67;;
28166;SDS011;15455;53.376;-6.262;2022-12-16T00:39:04;55.28;;;16.83;;
28166;SDS011;15455;53.376;-6.262;2022-12-16T00:41:49;45.80;;;16.27;;
28166;SDS011;15455;53.376;-6.262;2022-12-16T00:44:35;49.92;;;17.25;;
28166;SDS011;15455;53.376;-6.262;2022-12-16T00:47:21;42.90;;;17.48;;
28166;SDS011;15455;53.376;-6.262;2022-12-16T00:50:06;37.92;;;16.13;;
28166;SDS011;15455;53.376;-6.262;2022-12-16T00:52:53;48.75;;;16.90;;
28166;SDS011;15455;53.376;-6.262;2022-12-16T00:55:38;46.58;;;15.48;;
28166;SDS011;15455;53.376;-6.262;2022-12-16T00:58:24;42.33;;;16.92;;
28166;SDS011;15455;53.376;-6.262;2022-12-16T01:01:09;41.42;;;16.33;;
28166;SDS011;15455;53.376;-6.262;2022-12-16T01:03:55;46.25;;;15.18;;
28166;SDS011;15455;53.376;-6.262;2022-12-16T01:06:42;39.03;;;14.63;;
28166;SDS011;15455;53.376;-6.262;2022-12-16T01:09:27;38.65;;;16.05;;
28166;SDS011;15455;53.376;-6.262;2022-12-16T01:12:13;41.17;;;16.08;;
28166;SDS011;15455;53.376;-6.262;2022-12-16T01:14:58;35.20;;;14.50;;
28166;SDS011;15455;53.376;-6.262;2022-12-16T01:17:45;46.25;;;15.80;;
28166;SDS011;15455;53.376;-6.262;2022-12-16T01:20:31;32.55;;;15.43;;
28166;SDS011;15455;53.376;-6.262;2022-12-16T01:23:17;30.48;;;14.20;;
28166;SDS011;15455;53.376;-6.262;2022-12-16T01:26:03;42.90;;;15.95;;
28166;SDS011;15455;53.376;-6.262;2022-12-16T01:28:48;51.45;;;13.98;;
28166;SDS011;15455;53.376;-6.262;2022-12-16T01:31:34;36.25;;;15.43;;
28166;SDS011;15455;53.376;-6.262;2022-12-16T01:34:20;38.72;;;13.07;;
28166;SDS011;15455;53.376;-6.262;2022-12-16T01:37:05;37.55;;;13.52;;
28166;SDS011;15455;53.376;-6.262;2022-12-16T01:39:51;43.97;;;14.82;;
28166;SDS011;15455;53.376;-6.262;2022-12-16T01:42:36;42.30;;;16.13;;
28166;SDS011;15455;53.376;-6.262;2022-12-16T01:45:29;42.20;;;13.70;;
28166;SDS011;15455;53.376;-6.262;2022-12-16T01:48:31;45.28;;;15.80;;
28166;SDS011;15455;53.376;-6.262;2022-12-16T01:51:35;46.53;;;13.75;;
28166;SDS011;15455;53.376;-6.262;2022-12-16T01:54:27;38.08;;;14.05;;
28166;SDS011;15455;53.376;-6.262;2022-12-16T01:57:43;36.42;;;13.15;;
28166;SDS011;15455;53.376;-6.262;2022-12-16T02:00:40;35.00;;;13.93;;
28166;SDS011;15455;53.376;-6.262;2022-12-16T02:03:26;34.38;;;13.93;;
28166;SDS011;15455;53.376;-6.262;2022-12-16T02:06:16;35.53;;;13.48;;
28166;SDS011;15455;53.376;-6.262;2022-12-16T02:09:03;32.30;;;12.90;;
28166;SDS011;15455;53.376;-6.262;2022-12-16T02:12:14;37.35;;;13.52;;
28166;SDS011;15455;53.376;-6.262;2022-12-16T02:15:18;49.95;;;14.68;;
28166;SDS011;15455;53.376;-6.262;2022-12-16T02:30:39;33.22;;;12.55;;
28166;SDS011;15455;53.376;-6.262;2022-12-16T02:39:20;35.20;;;12.32;;
28166;SDS011;15455;53.376;-6.262;2022-12-16T02:45:11;34.65;;;11.98;;
28166;SDS011;15455;53.376;-6.262;2022-12-16T02:48:01;28.90;;;12.40;;
28166;SDS011;15455;53.376;-6.262;2022-12-16T02:50:50;29.77;;;13.48;;
28166;SDS011;15455;53.376;-6.262;2022-12-16T02:53:37;34.17;;;12.02;;
28166;SDS011;15455;53.376;-6.262;2022-12-16T03:05:38;23.40;;;10.15;;
28166;SDS011;15455;53.376;-6.262;2022-12-16T03:08:29;24.67;;;10.10;;
28166;SDS011;15455;53.376;-6.262;2022-12-16T03:11:18;30.63;;;10.80;;
28166;SDS011;15455;53.376;-6.262;2022-12-16T03:14:04;22.27;;;9.32;;
28166;SDS011;15455;53.376;-6.262;2022-12-16T03:16:54;25.80;;;9.98;;
28166;SDS011;15455;53.376;-6.262;2022-12-16T03:19:42;21.50;;;9.48;;
28166;SDS011;15455;53.376;-6.262;2022-12-16T03:22:32;23.73;;;10.13;;
28166;SDS011;15455;53.376;-6.262;2022-12-16T03:25:20;25.73;;;10.13;;
28166;SDS011;15455;53.376;-6.262;2022-12-16T03:31:43;30.40;;;9.35;;
28166;SDS011;15455;53.376;-6.262;2022-12-16T03:34:47;17.95;;;8.45;;
28166;SDS011;15455;53.376;-6.262;2022-12-16T03:37:37;25.20;;;9.82;;
28166;SDS011;15455;53.376;-6.262;2022-12-16T03:40:24;16.63;;;8.52;;
28166;SDS011;15455;53.376;-6.262;2022-12-16T03:43:12;30.38;;;10.50;;
28166;SDS011;15455;53.376;-6.262;2022-12-16T03:46:00;19.52;;;7.53;;
28166;SDS011;15455;53.376;-6.262;2022-12-16T03:48:49;28.98;;;8.00;;
28166;SDS011;15455;53.376;-6.262;2022-12-16T03:51:36;21.83;;;8.50;;
28166;SDS011;15455;53.376;-6.262;2022-12-16T03:54:21;18.90;;;7.63;;
28166;SDS011;15455;53.376;-6.262;2022-12-16T03:57:08;23.75;;;9.05;;
28166;SDS011;15455;53.376;-6.262;2022-12-16T03:59:59;18.85;;;8.45;;
28166;SDS011;15455;53.376;-6.262;2022-12-16T04:02:55;19.10;;;7.60;;
28166;SDS011;15455;53.376;-6.262;2022-12-16T04:05:41;17.33;;;6.50;;
28166;SDS011;15455;53.376;-6.262;2022-12-16T04:08:27;23.23;;;8.18;;
28166;SDS011;15455;53.376;-6.262;2022-12-16T04:11:13;19.73;;;8.73;;
28166;SDS011;15455;53.376;-6.262;2022-12-16T04:14:18;22.23;;;9.10;;
28166;SDS011;15455;53.376;-6.262;2022-12-16T04:17:22;28.88;;;8.50;;
28166;SDS011;15455;53.376;-6.262;2022-12-16T04:20:36;21.67;;;8.05;;
28166;SDS011;15455;53.376;-6.262;2022-12-16T04:23:47;26.77;;;8.13;;
28166;SDS011;15455;53.376;-6.262;2022-12-16T04:26:54;20.70;;;7.90;;
28166;SDS011;15455;53.376;-6.262;2022-12-16T04:29:59;19.25;;;8.85;;
28166;SDS011;15455;53.376;-6.262;2022-12-16T04:33:04;19.80;;;8.63;;
28166;SDS011;15455;53.376;-6.262;2022-12-16T04:36:12;20.85;;;9.30;;
28166;SDS011;15455;53.376;-6.262;2022-12-16T04:39:17;23.67;;;8.82;;
28166;SDS011;15455;53.376;-6.262;2022-12-16T04:42:21;19.52;;;8.82;;
28166;SDS011;15455;53.376;-6.262;2022-12-16T04:45:25;22.55;;;8.95;;
28166;SDS011;15455;53.376;-6.262;2022-12-16T04:48:29;16.90;;;8.40;;
28166;SDS011;15455;53.376;-6.262;2022-12-16T04:51:41;20.10;;;8.43;;
28166;SDS011;15455;53.376;-6.262;2022-12-16T04:54:45;21.48;;;7.78;;
28166;SDS011;15455;53.376;-6.262;2022-12-16T04:57:52;24.17;;;9.73;;
28166;SDS011;15455;53.376;-6.262;2022-12-16T05:00:58;28.35;;;9.10;;
28166;SDS011;15455;53.376;-6.262;2022-12-16T05:04:02;19.67;;;8.07;;
28166;SDS011;15455;53.376;-6.262;2022-12-16T05:07:06;20.23;;;8.77;;
28166;SDS011;15455;53.376;-6.262;2022-12-16T05:10:10;24.15;;;7.55;;
28166;SDS011;15455;53.376;-6.262;2022-12-16T05:13:15;26.98;;;8.18;;
28166;SDS011;15455;53.376;-6.262;2022-12-16T05:16:19;25.35;;;8.57;;
28166;SDS011;15455;53.376;-6.262;2022-12-16T05:19:23;22.45;;;8.35;;
28166;SDS011;15455;53.376;-6.262;2022-12-16T05:22:27;20.23;;;8.00;;
28166;SDS011;15455;53.376;-6.262;2022-12-16T05:25:31;23.88;;;9.20;;
28166;SDS011;15455;53.376;-6.262;2022-12-16T05:28:36;21.98;;;8.35;;
28166;SDS011;15455;53.376;-6.262;2022-12-16T05:31:40;27.92;;;8.98;;
28166;SDS011;15455;53.376;-6.262;2022-12-16T05:34:44;17.40;;;7.07;;
28166;SDS011;15455;53.376;-6.262;2022-12-16T05:37:47;23.52;;;7.93;;
28166;SDS011;15455;53.376;-6.262;2022-12-16T05:40:52;19.73;;;8.88;;
28166;SDS011;15455;53.376;-6.262;2022-12-16T05:43:56;17.58;;;7.53;;
28166;SDS011;15455;53.376;-6.262;2022-12-16T05:47:00;23.08;;;7.93;;
28166;SDS011;15455;53.376;-6.262;2022-12-16T05:50:04;14.98;;;7.18;;
28166;SDS011;15455;53.376;-6.262;2022-12-16T05:53:15;21.10;;;7.72;;
28166;SDS011;15455;53.376;-6.262;2022-12-16T05:56:19;22.70;;;9.00;;
28166;SDS011;15455;53.376;-6.262;2022-12-16T05:59:24;19.38;;;7.32;;
28166;SDS011;15455;53.376;-6.262;2022-12-16T06:02:28;21.27;;;7.75;;
28166;SDS011;15455;53.376;-6.262;2022-12-16T06:05:31;22.88;;;7.72;;
28166;SDS011;15455;53.376;-6.262;2022-12-16T06:08:35;20.70;;;7.28;;
28166;SDS011;15455;53.376;-6.262;2022-12-16T06:11:40;17.10;;;7.20;;
28166;SDS011;15455;53.376;-6.262;2022-12-16T06:14:43;14.20;;;6.47;;
28166;SDS011;15455;53.376;-6.262;2022-12-16T06:17:48;17.02;;;7.65;;
28166;SDS011;15455;53.376;-6.262;2022-12-16T06:20:53;24.40;;;8.43;;
28166;SDS011;15455;53.376;-6.262;2022-12-16T06:23:57;20.15;;;7.65;;
28166;SDS011;15455;53.376;-6.262;2022-12-16T06:27:01;14.80;;;6.07;;
28166;SDS011;15455;53.376;-6.262;2022-12-16T06:30:05;15.77;;;7.47;;
28166;SDS011;15455;53.376;-6.262;2022-12-16T06:33:10;20.75;;;8.05;;
28166;SDS011;15455;53.376;-6.262;2022-12-16T06:36:14;16.25;;;7.15;;
28166;SDS011;15455;53.376;-6.262;2022-12-16T06:39:18;27.60;;;8.85;;
28166;SDS011;15455;53.376;-6.262;2022-12-16T06:42:23;23.33;;;8.32;;
28166;SDS011;15455;53.376;-6.262;2022-12-16T06:45:27;19.83;;;8.13;;
28166;SDS011;15455;53.376;-6.262;2022-12-16T06:48:31;14.57;;;7.28;;
28166;SDS011;15455;53.376;-6.262;2022-12-16T06:51:35;17.30;;;7.22;;
28166;SDS011;15455;53.376;-6.262;2022-12-16T06:54:39;16.85;;;6.35;;
28166;SDS011;15455;53.376;-6.262;2022-12-16T06:57:44;19.17;;;6.75;;
28166;SDS011;15455;53.376;-6.262;2022-12-16T07:00:54;17.65;;;6.65;;
28166;SDS011;15455;53.376;-6.262;2022-12-16T07:03:58;20.38;;;7.28;;
28166;SDS011;15455;53.376;-6.262;2022-12-16T07:07:01;15.05;;;6.38;;
28166;SDS011;15455;53.376;-6.262;2022-12-16T07:10:06;15.80;;;6.55;;
28166;SDS011;15455;53.376;-6.262;2022-12-16T07:13:10;13.52;;;7.05;;
28166;SDS011;15455;53.376;-6.262;2022-12-16T07:16:15;15.88;;;6.05;;
28166;SDS011;15455;53.376;-6.262;2022-12-16T07:19:19;19.67;;;6.60;;
28166;SDS011;15455;53.376;-6.262;2022-12-16T07:22:23;16.10;;;6.93;;
28166;SDS011;15455;53.376;-6.262;2022-12-16T07:25:28;14.65;;;7.80;;
28166;SDS011;15455;53.376;-6.262;2022-12-16T07:28:33;16.80;;;6.50;;
28166;SDS011;15455;53.376;-6.262;2022-12-16T07:31:37;12.55;;;6.10;;
28166;SDS011;15455;53.376;-6.262;2022-12-16T07:34:41;17.92;;;8.45;;
28166;SDS011;15455;53.376;-6.262;2022-12-16T07:37:45;17.88;;;8.90;;
28166;SDS011;15455;53.376;-6.262;2022-12-16T07:40:49;23.05;;;9.65;;
28166;SDS011;15455;53.376;-6.262;2022-12-16T07:43:53;16.80;;;9.43;;
28166;SDS011;15455;53.376;-6.262;2022-12-16T07:46:57;15.15;;;7.85;;
28166;SDS011;15455;53.376;-6.262;2022-12-16T07:50:01;19.20;;;9.48;;
28166;SDS011;15455;53.376;-6.262;2022-12-16T07:53:06;23.65;;;10.63;;
28166;SDS011;15455;53.376;-6.262;2022-12-16T07:56:15;22.98;;;9.38;;
28166;SDS011;15455;53.376;-6.262;2022-12-16T07:59:19;17.30;;;7.93;;
28166;SDS011;15455;53.376;-6.262;2022-12-16T08:02:23;21.40;;;8.63;;
28166;SDS011;15455;53.376;-6.262;2022-12-16T08:05:27;19.30;;;10.18;;
28166;SDS011;15455;53.376;-6.262;2022-12-16T08:08:32;18.35;;;9.25;;
28166;SDS011;15455;53.376;-6.262;2022-12-16T08:11:36;16.85;;;7.72;;
28166;SDS011;15455;53.376;-6.262;2022-12-16T08:14:40;14.63;;;7.57;;
28166;SDS011;15455;53.376;-6.262;2022-12-16T08:17:48;25.08;;;8.07;;
28166;SDS011;15455;53.376;-6.262;2022-12-16T08:20:56;13.63;;;7.07;;
28166;SDS011;15455;53.376;-6.262;2022-12-16T08:24:00;14.18;;;7.88;;
28166;SDS011;15455;53.376;-6.262;2022-12-16T08:27:04;20.52;;;8.10;;
28166;SDS011;15455;53.376;-6.262;2022-12-16T08:30:08;17.98;;;7.95;;
28166;SDS011;15455;53.376;-6.262;2022-12-16T08:33:13;11.45;;;6.50;;
28166;SDS011;15455;53.376;-6.262;2022-12-16T08:36:17;15.45;;;6.75;;
28166;SDS011;15455;53.376;-6.262;2022-12-16T08:39:22;14.07;;;6.05;;
28166;SDS011;15455;53.376;-6.262;2022-12-16T08:42:26;14.57;;;6.13;;
28166;SDS011;15455;53.376;-6.262;2022-12-16T08:45:31;11.82;;;6.50;;
28166;SDS011;15455;53.376;-6.262;2022-12-16T08:48:36;10.60;;;4.97;;
28166;SDS011;15455;53.376;-6.262;2022-12-16T08:51:40;16.20;;;6.15;;
28166;SDS011;15455;53.376;-6.262;2022-12-16T08:54:45;13.80;;;5.45;;
28166;SDS011;15455;53.376;-6.262;2022-12-16T08:57:53;12.73;;;5.47;;
28166;SDS011;15455;53.376;-6.262;2022-12-16T09:00:57;14.10;;;6.43;;
28166;SDS011;15455;53.376;-6.262;2022-12-16T09:04:01;12.35;;;5.68;;
28166;SDS011;15455;53.376;-6.262;2022-12-16T09:07:05;13.02;;;6.00;;
28166;SDS011;15455;53.376;-6.262;2022-12-16T09:10:09;13.05;;;6.60;;
28166;SDS011;15455;53.376;-6.262;2022-12-16T09:13:19;24.02;;;10.32;;
28166;SDS011;15455;53.376;-6.262;2022-12-16T09:16:24;20.30;;;8.93;;
28166;SDS011;15455;53.376;-6.262;2022-12-16T09:19:28;20.58;;;9.38;;
28166;SDS011;15455;53.376;-6.262;2022-12-16T09:22:32;14.80;;;7.47;;
28166;SDS011;15455;53.376;-6.262;2022-12-16T09:25:39;14.23;;;5.53;;
28166;SDS011;15455;53.376;-6.262;2022-12-16T09:28:42;20.48;;;8.05;;
28166;SDS011;15455;53.376;-6.262;2022-12-16T09:31:47;19.52;;;8.95;;
28166;SDS011;15455;53.376;-6.262;2022-12-16T09:34:52;27.65;;;11.55;;
28166;SDS011;15455;53.376;-6.262;2022-12-16T09:37:58;26.83;;;10.25;;
28166;SDS011;15455;53.376;-6.262;2022-12-16T09:48:09;21.70;;;9.50;;
28166;SDS011;15455;53.376;-6.262;2022-12-16T09:51:18;21.40;;;7.35;;
28166;SDS011;15455;53.376;-6.262;2022-12-16T09:54:23;16.27;;;7.13;;
28166;SDS011;15455;53.376;-6.262;2022-12-16T09:57:32;13.60;;;5.07;;
28166;SDS011;15455;53.376;-6.262;2022-12-16T10:00:39;18.40;;;6.80;;
28166;SDS011;15455;53.376;-6.262;2022-12-16T10:03:44;19.42;;;7.15;;
28166;SDS011;15455;53.376;-6.262;2022-12-16T10:06:50;17.02;;;6.63;;
28166;SDS011;15455;53.376;-6.262;2022-12-16T10:13:20;19.33;;;7.10;;
28166;SDS011;15455;53.376;-6.262;2022-12-16T10:23:12;16.42;;;5.57;;
28166;SDS011;15455;53.376;-6.262;2022-12-16T10:29:44;16.23;;;6.60;;
28166;SDS011;15455;53.376;-6.262;2022-12-16T10:32:49;18.23;;;6.85;;
28166;SDS011;15455;53.376;-6.262;2022-12-16T10:35:54;12.73;;;6.43;;
28166;SDS011;15455;53.376;-6.262;2022-12-16T10:39:00;13.65;;;5.90;;
28166;SDS011;15455;53.376;-6.262;2022-12-16T10:42:06;13.85;;;6.32;;
28166;SDS011;15455;53.376;-6.262;2022-12-16T10:45:32;13.25;;;6.40;;
28166;SDS011;15455;53.376;-6.262;2022-12-16T10:48:40;10.48;;;5.93;;
28166;SDS011;15455;53.376;-6.262;2022-12-16T10:51:44;18.10;;;7.22;;
28166;SDS011;15455;53.376;-6.262;2022-12-16T10:54:55;20.58;;;6.22;;
28166;SDS011;15455;53.376;-6.262;2022-12-16T10:58:22;18.38;;;6.57;;
28166;SDS011;15455;53.376;-6.262;2022-12-16T11:01:41;13.40;;;5.07;;
28166;SDS011;15455;53.376;-6.262;2022-12-16T11:05:00;9.70;;;4.60;;
28166;SDS011;15455;53.376;-6.262;2022-12-16T11:08:08;7.90;;;4.72;;
28166;SDS011;15455;53.376;-6.262;2022-12-16T11:11:26;10.82;;;5.15;;
28166;SDS011;15455;53.376;-6.262;2022-12-16T11:14:32;16.65;;;6.53;;
28166;SDS011;15455;53.376;-6.262;2022-12-16T11:18:03;8.90;;;5.28;;
28166;SDS011;15455;53.376;-6.262;2022-12-16T11:24:17;18.42;;;6.03;;
28166;SDS011;15455;53.376;-6.262;2022-12-16T11:27:24;19.65;;;5.95;;
28166;SDS011;15455;53.376;-6.262;2022-12-16T11:30:29;12.80;;;4.57;;
28166;SDS011;15455;53.376;-6.262;2022-12-16T11:33:33;10.98;;;5.15;;
28166;SDS011;15455;53.376;-6.262;2022-12-16T11:36:40;21.70;;;5.18;;
28166;SDS011;15455;53.376;-6.262;2022-12-16T11:39:45;16.90;;;4.85;;
28166;SDS011;15455;53.376;-6.262;2022-12-16T11:42:49;11.32;;;4.05;;
28166;SDS011;15455;53.376;-6.262;2022-12-16T11:46:02;14.38;;;4.78;;
28166;SDS011;15455;53.376;-6.262;2022-12-16T11:49:23;11.38;;;4.70;;
28166;SDS011;15455;53.376;-6.262;2022-12-16T11:52:32;8.95;;;4.40;;
28166;SDS011;15455;53.376;-6.262;2022-12-16T11:55:37;9.02;;;4.32;;
28166;SDS011;15455;53.376;-6.262;2022-12-16T11:58:54;6.50;;;4.07;;
28166;SDS011;15455;53.376;-6.262;2022-12-16T12:02:07;13.40;;;4.53;;
28166;SDS011;15455;53.376;-6.262;2022-12-16T12:05:27;13.95;;;3.97;;
28166;SDS011;15455;53.376;-6.262;2022-12-16T12:12:23;15.60;;;4.55;;
28166;SDS011;15455;53.376;-6.262;2022-12-16T12:15:42;10.55;;;3.88;;
28166;SDS011;15455;53.376;-6.262;2022-12-16T12:18:55;8.70;;;4.05;;
28166;SDS011;15455;53.376;-6.262;2022-12-16T12:22:09;17.40;;;4.85;;
28166;SDS011;15455;53.376;-6.262;2022-12-16T12:28:50;12.40;;;4.18;;
28166;SDS011;15455;53.376;-6.262;2022-12-16T12:35:30;9.93;;;3.03;;
28166;SDS011;15455;53.376;-6.262;2022-12-16T12:58:38;6.57;;;1.75;;
28166;SDS011;15455;53.376;-6.262;2022-12-16T13:01:55;7.30;;;2.42;;
28166;SDS011;15455;53.376;-6.262;2022-12-16T13:04:59;8.70;;;2.22;;
28166;SDS011;15455;53.376;-6.262;2022-12-16T13:15:19;9.73;;;1.88;;
28166;SDS011;15455;53.376;-6.262;2022-12-16T13:18:25;7.05;;;1.50;;
28166;SDS011;15455;53.376;-6.262;2022-12-16T13:21:43;7.07;;;1.63;;
28166;SDS011;15455;53.376;-6.262;2022-12-16T13:24:49;4.70;;;1.60;;
28166;SDS011;15455;53.376;-6.262;2022-12-16T13:27:54;9.30;;;1.65;;
28166;SDS011;15455;53.376;-6.262;2022-12-16T13:31:01;4.80;;;1.77;;
28166;SDS011;15455;53.376;-6.262;2022-12-16T13:37:23;5.63;;;2.20;;
28166;SDS011;15455;53.376;-6.262;2022-12-16T13:40:29;2.63;;;1.85;;
28166;SDS011;15455;53.376;-6.262;2022-12-16T13:44:06;6.80;;;1.40;;
28166;SDS011;15455;53.376;-6.262;2022-12-16T13:47:30;3.75;;;1.20;;
28166;SDS011;15455;53.376;-6.262;2022-12-16T13:50:37;10.18;;;1.50;;
28166;SDS011;15455;53.376;-6.262;2022-12-16T13:53:42;7.47;;;1.88;;
28166;SDS011;15455;53.376;-6.262;2022-12-16T13:56:51;5.45;;;1.70;;
28166;SDS011;15455;53.376;-6.262;2022-12-16T13:59:58;2.22;;;1.60;;
28166;SDS011;15455;53.376;-6.262;2022-12-16T14:03:10;8.18;;;1.52;;
28166;SDS011;15455;53.376;-6.262;2022-12-16T14:06:21;13.10;;;1.98;;
28166;SDS011;15455;53.376;-6.262;2022-12-16T14:09:31;6.75;;;1.88;;
28166;SDS011;15455;53.376;-6.262;2022-12-16T14:16:04;7.10;;;1.13;;
28166;SDS011;15455;53.376;-6.262;2022-12-16T14:22:48;5.75;;;1.70;;
28166;SDS011;15455;53.376;-6.262;2022-12-16T14:26:17;6.25;;;1.30;;
28166;SDS011;15455;53.376;-6.262;2022-12-16T14:29:27;7.95;;;1.27;;
28166;SDS011;15455;53.376;-6.262;2022-12-16T14:32:33;5.00;;;1.52;;
28166;SDS011;15455;53.376;-6.262;2022-12-16T14:35:38;3.90;;;1.25;;
28166;SDS011;15455;53.376;-6.262;2022-12-16T14:38:52;8.00;;;1.10;;
28166;SDS011;15455;53.376;-6.262;2022-12-16T14:41:56;8.45;;;1.23;;
28166;SDS011;15455;53.376;-6.262;2022-12-16T14:45:01;7.03;;;1.80;;
28166;SDS011;15455;53.376;-6.262;2022-12-16T14:48:28;6.72;;;1.25;;
28166;SDS011;15455;53.376;-6.262;2022-12-16T14:51:44;3.95;;;1.25;;
28166;SDS011;15455;53.376;-6.262;2022-12-16T14:54:50;3.30;;;1.30;;
28166;SDS011;15455;53.376;-6.262;2022-12-16T14:58:04;4.78;;;1.95;;
28166;SDS011;15455;53.376;-6.262;2022-12-16T15:01:20;2.42;;;1.50;;
28166;SDS011;15455;53.376;-6.262;2022-12-16T15:04:26;7.03;;;2.05;;
28166;SDS011;15455;53.376;-6.262;2022-12-16T15:07:32;12.00;;;2.47;;
28166;SDS011;15455;53.376;-6.262;2022-12-16T15:10:40;6.43;;;1.70;;
28166;SDS011;15455;53.376;-6.262;2022-12-16T15:13:45;2.38;;;1.42;;
28166;SDS011;15455;53.376;-6.262;2022-12-16T15:16:53;5.40;;;2.17;;
28166;SDS011;15455;53.376;-6.262;2022-12-16T15:19:58;4.05;;;1.83;;
28166;SDS011;15455;53.376;-6.262;2022-12-16T15:23:02;5.93;;;1.77;;
28166;SDS011;15455;53.376;-6.262;2022-12-16T15:26:07;7.20;;;1.90;;
28166;SDS011;15455;53.376;-6.262;2022-12-16T15:32:51;2.92;;;1.40;;
28166;SDS011;15455;53.376;-6.262;2022-12-16T15:35:59;9.75;;;1.48;;
28166;SDS011;15455;53.376;-6.262;2022-12-16T15:39:18;14.13;;;1.98;;
28166;SDS011;15455;53.376;-6.262;2022-12-16T15:42:26;3.47;;;1.77;;
28166;SDS011;15455;53.376;-6.262;2022-12-16T15:45:32;9.55;;;2.20;;
28166;SDS011;15455;53.376;-6.262;2022-12-16T15:48:36;7.28;;;2.28;;
28166;SDS011;15455;53.376;-6.262;2022-12-16T15:51:42;3.17;;;1.77;;
28166;SDS011;15455;53.376;-6.262;2022-12-16T15:54:52;10.18;;;2.92;;
28166;SDS011;15455;53.376;-6.262;2022-12-16T15:57:57;6.15;;;1.92;;
28166;SDS011;15455;53.376;-6.262;2022-12-16T16:01:02;9.43;;;2.78;;
28166;SDS011;15455;53.376;-6.262;2022-12-16T16:07:31;10.43;;;4.60;;
28166;SDS011;15455;53.376;-6.262;2022-12-16T16:10:35;7.70;;;2.88;;
28166;SDS011;15455;53.376;-6.262;2022-12-16T16:13:59;10.10;;;3.38;;
28166;SDS011;15455;53.376;-6.262;2022-12-16T16:17:08;13.43;;;3.20;;
28166;SDS011;15455;53.376;-6.262;2022-12-16T16:20:23;8.50;;;3.10;;
28166;SDS011;15455;53.376;-6.262;2022-12-16T16:23:27;11.88;;;2.80;;
28166;SDS011;15455;53.376;-6.262;2022-12-16T16:26:31;14.30;;;4.28;;
28166;SDS011;15455;53.376;-6.262;2022-12-16T16:29:35;15.45;;;4.68;;
28166;SDS011;15455;53.376;-6.262;2022-12-16T16:32:40;9.10;;;4.18;;
28166;SDS011;15455;53.376;-6.262;2022-12-16T16:36:13;8.52;;;4.45;;
28166;SDS011;15455;53.376;-6.262;2022-12-16T16:39:18;6.15;;;3.30;;
28166;SDS011;15455;53.376;-6.262;2022-12-16T16:42:23;11.07;;;3.40;;
28166;SDS011;15455;53.376;-6.262;2022-12-16T16:45:27;5.80;;;2.85;;
28166;SDS011;15455;53.376;-6.262;2022-12-16T16:48:31;5.43;;;2.72;;
28166;SDS011;15455;53.376;-6.262;2022-12-16T16:51:36;6.88;;;2.85;;
28166;SDS011;15455;53.376;-6.262;2022-12-16T16:54:40;6.25;;;2.67;;
28166;SDS011;15455;53.376;-6.262;2022-12-16T16:57:44;5.70;;;2.55;;
28166;SDS011;15455;53.376;-6.262;2022-12-16T17:00:49;12.85;;;2.65;;
28166;SDS011;15455;53.376;-6.262;2022-12-16T17:03:53;3.90;;;2.40;;
28166;SDS011;15455;53.376;-6.262;2022-12-16T17:06:57;11.68;;;2.55;;
28166;SDS011;15455;53.376;-6.262;2022-12-16T17:10:02;8.27;;;2.45;;
28166;SDS011;15455;53.376;-6.262;2022-12-16T17:13:06;4.50;;;2.28;;
28166;SDS011;15455;53.376;-6.262;2022-12-16T17:16:12;4.03;;;2.20;;
28166;SDS011;15455;53.376;-6.262;2022-12-16T17:19:17;7.22;;;3.22;;
28166;SDS011;15455;53.376;-6.262;2022-12-16T17:22:21;8.95;;;3.03;;
28166;SDS011;15455;53.376;-6.262;2022-12-16T17:25:25;5.72;;;2.30;;
28166;SDS011;15455;53.376;-6.262;2022-12-16T17:28:29;5.93;;;2.88;;
28166;SDS011;15455;53.376;-6.262;2022-12-16T17:31:33;9.00;;;2.90;;
28166;SDS011;15455;53.376;-6.262;2022-12-16T17:34:37;7.13;;;2.55;;
28166;SDS011;15455;53.376;-6.262;2022-12-16T17:37:41;5.68;;;2.78;;
28166;SDS011;15455;53.376;-6.262;2022-12-16T17:40:50;8.30;;;3.50;;
28166;SDS011;15455;53.376;-6.262;2022-12-16T17:43:55;7.65;;;2.50;;
28166;SDS011;15455;53.376;-6.262;2022-12-16T17:47:06;5.67;;;2.30;;
28166;SDS011;15455;53.376;-6.262;2022-12-16T17:50:11;9.52;;;2.63;;
28166;SDS011;15455;53.376;-6.262;2022-12-16T17:53:15;4.85;;;1.88;;
28166;SDS011;15455;53.376;-6.262;2022-12-16T17:56:20;6.88;;;2.17;;
28166;SDS011;15455;53.376;-6.262;2022-12-16T17:59:24;10.13;;;2.38;;
28166;SDS011;15455;53.376;-6.262;2022-12-16T18:02:28;7.65;;;2.80;;
28166;SDS011;15455;53.376;-6.262;2022-12-16T18:05:33;6.80;;;3.53;;
28166;SDS011;15455;53.376;-6.262;2022-12-16T18:08:37;7.28;;;2.97;;
28166;SDS011;15455;53.376;-6.262;2022-12-16T18:11:41;9.68;;;3.00;;
28166;SDS011;15455;53.376;-6.262;2022-12-16T18:14:45;14.18;;;4.57;;
28166;SDS011;15455;53.376;-6.262;2022-12-16T18:17:49;11.65;;;4.55;;
28166;SDS011;15455;53.376;-6.262;2022-12-16T18:20:53;12.00;;;5.70;;
28166;SDS011;15455;53.376;-6.262;2022-12-16T18:23:57;11.00;;;5.07;;
28166;SDS011;15455;53.376;-6.262;2022-12-16T18:27:01;21.40;;;9.98;;
28166;SDS011;15455;53.376;-6.262;2022-12-16T18:30:06;21.77;;;8.85;;
28166;SDS011;15455;53.376;-6.262;2022-12-16T18:33:10;15.05;;;9.00;;
28166;SDS011;15455;53.376;-6.262;2022-12-16T18:36:15;21.92;;;8.57;;
28166;SDS011;15455;53.376;-6.262;2022-12-16T18:39:19;21.95;;;9.38;;
28166;SDS011;15455;53.376;-6.262;2022-12-16T18:42:23;23.23;;;13.82;;
28166;SDS011;15455;53.376;-6.262;2022-12-16T18:45:27;20.67;;;14.70;;
28166;SDS011;15455;53.376;-6.262;2022-12-16T18:48:31;33.15;;;12.85;;
28166;SDS011;15455;53.376;-6.262;2022-12-16T18:51:36;20.88;;;9.35;;
28166;SDS011;15455;53.376;-6.262;2022-12-16T18:54:40;9.40;;;4.60;;
28166;SDS011;15455;53.376;-6.262;2022-12-16T18:57:44;14.60;;;6.40;;
28166;SDS011;15455;53.376;-6.262;2022-12-16T19:01:09;12.75;;;6.72;;
28166;SDS011;15455;53.376;-6.262;2022-12-16T19:04:14;23.52;;;13.35;;
28166;SDS011;15455;53.376;-6.262;2022-12-16T19:07:18;15.20;;;6.13;;
28166;SDS011;15455;53.376;-6.262;2022-12-16T19:10:22;18.90;;;5.22;;
28166;SDS011;15455;53.376;-6.262;2022-12-16T19:13:27;11.45;;;4.00;;
28166;SDS011;15455;53.376;-6.262;2022-12-16T19:16:31;9.30;;;4.60;;
28166;SDS011;15455;53.376;-6.262;2022-12-16T19:19:35;10.50;;;5.43;;
28166;SDS011;15455;53.376;-6.262;2022-12-16T19:22:40;13.25;;;5.03;;
28166;SDS011;15455;53.376;-6.262;2022-12-16T19:25:44;22.73;;;8.80;;
28166;SDS011;15455;53.376;-6.262;2022-12-16T19:28:48;10.25;;;4.72;;
28166;SDS011;15455;53.376;-6.262;2022-12-16T19:31:53;11.38;;;5.03;;
28166;SDS011;15455;53.376;-6.262;2022-12-16T19:34:57;14.68;;;6.40;;
28166;SDS011;15455;53.376;-6.262;2022-12-16T19:38:01;13.45;;;5.78;;
28166;SDS011;15455;53.376;-6.262;2022-12-16T19:41:09;10.52;;;5.57;;